Hlavní strana
METAR-TAF:

METAR-TAF

Letiště :

Dzaoudzi, Mayotte

zeměpisná šířka: 12-48S, zeměpisná délka: 045-17E, výška: 8 m

Aktuální stav počasí

Zpráva byla vytvořena před 35 minutami, v 01:00 UTC
Bezvětří
Teplota 26°C
Vlhkost vzduchu 100%
Tlak 1008 hPa
Viditelnost 10 km a více
Skoro jasno ve výšce 1900 ft

METAR: FMCZ 210100Z AUTO 00000KT 9999 FEW019 26/26 Q1008 NOSIG

Čas: 04:35 (01:35 UTC)

Předpověď počasí

Zpráva byla vytvořena před 2 hodinami a 35 minutami, v 23:00 UTC
Předpověď platná od 21 v 00 UTC do 21 v 24 UTC
Severozápadní vítr 5 kt
Viditelnost 10 km a více
Skoro jasno ve výšce 1800 ft
Polojasno ve výšce 2500 ft
Pravděpodobnost 40% :
Dočasný
od 21 v 08 UTC do 21 v 12 UTC
Polojasno ve výšce 1800 ft, Cumulonimbus.
Oblačno až skoro zataženo ve výšce 2500 ft, Vertikální cumulus.
bouřka, déšť

TAF: FMCZ 202300Z 2100/2124 32005KT 9999 FEW018 SCT025 PROB40 TEMPO 2108/2112 TSRA SCT018CB BKN025TCU

Stav a předpovědi počasí z více než 4 000 letišť (zprávy METAR a TAF).

Červené a žluté tečky na mapě představují dostupné meteorologické stanice.

Když kurzor umístíte na tečku, zobrazí se název stanice.

Pak kliknutím zobrazíte stav a předpověď počasí.

Chcete-li změnit mapu, kliknutím na zelené tlačítko se znaménkem +mapu přiblížíte, kliknutím na zelené tlačítko se znaménkem – mapu oddálíte a kliknutím na zelené šipky přejdete na sousední mapy.


METAR-TAF: